Terminal Aerodrome Forecast
Issued by NWS

Home | Current Version | Previous Version | Graphics & Text | Print | Product List | Glossary On
Versions: 1 2 3 4 5 6 7 8 9 10 11 12 13 14 15 16 17
000
FTUS43 KICT 211553 AAA
TAFSLN
TAF AMD
KSLN 211553Z 2116/2212 07009KT P6SM VCSH SCT009 OVC030
      TEMPO 2116/2118 6SM -RA BKN010 OVC025
     FM211800 06008KT 6SM -RA OVC015
     FM220000 02010KT 5SM BR VCSH OVC008
     FM220300 36010KT 5SM BR OVC008=

USA.gov is the U.S. government's official web portal to all federal, state and local government web resources and services.